North Platte Regional Airport Lee Bird Field
KLBF : now visible

Airfield :











YOU CAN JOIN US ON...

 
LOGIN :

Register | Disclaimer

   EN    FR    IT 

 









Legend :    VFR   Marginal VFR   IFR   Intensive IFR   Very Intensive IFR
Visi :
Ceiling :
>= 8 km
>= 3000ft
5 to 8 km
1000 to 3000 ft
1500m to 5 km
500 to 1000 ft
800 to 1500m
200 to 500 ft
< 800m
< 200 ft
Symbols :   Thunderstorms  Fog  Heavy snow  Heavy precipitations  Wind > 20 kt






- Airport Elevation : 2777 ft
- IATA code : LBF


KLBF - North Platte Regional Lee Bird Field

CURRENT METAR :
  • 080553Z AUTO 33004KT 10SM CLR 10/03 A2984 RMK AO2 SLP087 T01000028 10250 20072 402670017 51009

EXPIRED METARs :
  • 080453Z AUTO 33006KT 10SM CLR 08/03 A2983 RMK AO2 SLP088 T00780028
  • 080353Z AUTO 00000KT 10SM CLR 09/00 A2982 RMK AO2 SLP088 T00940000

TAF KLBF
Valid from the 08 at 06:00 until the 09 at 06:00 UTC


080541Z 0806/0906 28005KT P6SM BKN200
FM081500 35017KT P6SM SCT200
FM081600 35018G27KT P6SM FEW060 BKN100
FM090000 35013G20KT P6SM SCT100
FM090200 35005KT P6SM SKC



MET'MAP, your aeronautical weather chart ! - Copyright ORBIFLY December 2007 - Disclaimer

ORBIFLY MET'MAP TEAM :

Programming & Development : Alexandra Zaïnal
Concept & original design : Baudouin d'Aumeries
Assistance for programming : Marc-Olivier Méhu
Technical & hardware support : Manuel Goepfert

Contact : metmap@orbifly.com




SOURCES & CREDITS :

   NOAA       Earth
Advisory